Soignies, Belgium
Current Conditions -  °F | °C
As of 10:43 PM on Friday 28 Nov 2014 (Local Time) from EBCV Reporting Station
Clear Clear  
Wind Chill: 41°   Ceiling: Unl
Heat Index: 45°   Visibility: 4mi
Dew Point: 41°   Wind: 7mph
Humidity: 87%   Direction: 90°E
Pressure: 29.77"   Gusts: NA
Location:  50.58°N, 4.07°E
Report Text: EBCV 282143Z AUTO 09006KT 7000 NCD 07/05 Q1008 WHT
Loading
Personal Weather Stations






























Interactive Weather Map New forecast layout! Learn more

10-Day Weather Forecast

Advertisements
Track Severe Weather on mobile